createdAt,value
2019-02-12T00:02:20.813Z,1.27
2019-02-12T00:04:49.396Z,1.10
2019-02-12T00:07:18.024Z,1.50
2019-02-12T00:09:46.644Z,1.00
2019-02-12T00:12:15.277Z,1.03
2019-02-12T00:14:43.888Z,0.97
2019-02-12T00:17:12.516Z,1.10
2019-02-12T00:19:41.455Z,1.57
2019-02-12T00:22:10.104Z,1.27
2019-02-12T00:24:39.024Z,0.87
2019-02-12T00:27:07.667Z,0.93
2019-02-12T00:29:36.326Z,1.03
2019-02-12T00:32:04.958Z,1.10
2019-02-12T00:34:33.578Z,1.33
2019-02-12T00:37:02.551Z,1.57
2019-02-12T00:39:31.168Z,0.93
2019-02-12T00:41:59.796Z,1.37
2019-02-12T00:44:28.718Z,1.13
2019-02-12T00:46:57.335Z,1.43
2019-02-12T00:49:26.289Z,1.60
2019-02-12T00:51:55.175Z,1.30
2019-02-12T00:54:24.206Z,1.50
2019-02-12T00:56:52.693Z,1.50
2019-02-12T00:59:21.620Z,1.20
2019-02-12T01:01:50.621Z,2.00
2019-02-12T01:04:19.234Z,1.37
2019-02-12T01:06:47.889Z,1.90
2019-02-12T01:09:16.876Z,1.37
2019-02-12T01:11:45.517Z,1.77
2019-02-12T01:14:14.128Z,1.70
2019-02-12T01:16:42.763Z,1.30
2019-02-12T01:19:11.381Z,1.33
2019-02-12T01:21:40.013Z,1.43
2019-02-12T01:24:08.636Z,1.53
2019-02-12T01:26:37.273Z,1.80
2019-02-12T01:29:05.891Z,1.13
2019-02-12T01:31:34.859Z,1.20
2019-02-12T01:34:03.817Z,1.87
2019-02-12T01:36:32.807Z,1.70
2019-02-12T01:39:01.801Z,2.03
2019-02-12T01:41:30.792Z,1.83
2019-02-12T01:43:59.682Z,1.20
2019-02-12T01:46:28.314Z,0.83
2019-02-12T01:48:56.944Z,1.27
2019-02-12T01:51:25.583Z,0.97
2019-02-12T01:53:54.214Z,1.33
2019-02-12T01:56:22.858Z,1.00
2019-02-12T01:58:51.470Z,1.17
2019-02-12T02:01:20.147Z,1.20
2019-02-12T02:03:48.782Z,1.00
2019-02-12T02:06:17.390Z,1.30
2019-02-12T02:08:46.007Z,1.07
2019-02-12T02:11:14.638Z,0.70
2019-02-12T02:13:43.272Z,1.30
2019-02-12T02:16:11.941Z,1.17
2019-02-12T02:18:40.850Z,1.20
2019-02-12T02:21:09.491Z,1.40
2019-02-12T02:23:38.419Z,1.10
2019-02-12T02:26:07.042Z,1.13
2019-02-12T02:28:36.000Z,1.23
2019-02-12T02:31:04.642Z,1.30
2019-02-12T02:33:33.557Z,1.40
2019-02-12T02:36:02.188Z,1.47
2019-02-12T02:38:30.872Z,2.00
2019-02-12T02:40:59.430Z,1.60
2019-02-12T02:43:28.059Z,0.77
2019-02-12T02:45:56.673Z,1.83
2019-02-12T02:48:25.301Z,1.17
2019-02-12T02:50:53.906Z,1.10
2019-02-12T02:53:22.765Z,1.37
2019-02-12T02:55:51.399Z,2.33
2019-02-12T02:58:20.034Z,1.10
2019-02-12T03:00:48.655Z,1.40
2019-02-12T03:03:17.553Z,1.10
2019-02-12T03:05:46.480Z,0.83
2019-02-12T03:08:15.140Z,1.33
2019-02-12T03:10:43.740Z,1.23
2019-02-12T03:13:12.361Z,0.97
2019-02-12T03:15:40.980Z,1.60
2019-02-12T03:18:09.607Z,1.20
2019-02-12T03:20:38.230Z,0.90
2019-02-12T03:23:06.850Z,1.13
2019-02-12T03:25:35.506Z,1.27
2019-02-12T03:28:04.104Z,1.00
2019-02-12T03:30:32.726Z,1.30
2019-02-12T03:33:01.361Z,1.63
2019-02-12T03:35:29.972Z,1.40
2019-02-12T03:37:58.611Z,1.60
2019-02-12T03:40:27.208Z,1.60
2019-02-12T03:42:56.202Z,2.13
2019-02-12T03:45:24.832Z,1.13
2019-02-12T03:47:53.461Z,1.43
2019-02-12T03:50:22.079Z,1.57
2019-02-12T03:52:50.709Z,1.30
2019-02-12T03:55:19.328Z,1.20
2019-02-12T03:57:47.954Z,2.03
2019-02-12T04:00:16.859Z,1.10
2019-02-12T04:05:45.561Z,1.37
2019-02-12T04:08:14.188Z,0.93
2019-02-12T04:10:42.798Z,1.20
2019-02-12T04:13:11.424Z,1.07
2019-02-12T04:15:40.033Z,1.40
2019-02-12T04:18:08.676Z,1.20
2019-02-12T04:20:37.299Z,1.13
2019-02-12T04:23:06.265Z,1.37
2019-02-12T04:25:34.888Z,1.43
2019-02-12T04:28:03.498Z,1.27
2019-02-12T04:30:32.116Z,1.10
2019-02-12T04:33:00.747Z,1.50
2019-02-12T04:35:29.373Z,1.30
2019-02-12T04:37:58.027Z,1.57
2019-02-12T04:40:26.643Z,1.70
2019-02-12T04:42:55.530Z,1.20
2019-02-12T04:45:24.165Z,1.50
2019-02-12T04:47:52.790Z,1.10
2019-02-12T04:50:21.412Z,1.63
2019-02-12T04:52:50.048Z,2.10
2019-02-12T04:55:18.653Z,1.73
2019-02-12T04:57:47.645Z,1.20
2019-02-12T05:00:16.398Z,1.03
2019-02-12T05:02:44.915Z,1.80
2019-02-12T05:05:13.539Z,1.57
2019-02-12T05:07:42.204Z,1.37
2019-02-12T05:10:14.036Z,1.77
2019-02-12T05:12:42.652Z,1.50
2019-02-12T05:15:11.604Z,2.10
2019-02-12T05:17:40.195Z,2.00
2019-02-12T05:20:08.848Z,1.50
2019-02-12T05:22:43.599Z,1.30
2019-02-12T05:25:06.102Z,1.63
2019-02-12T05:27:35.022Z,1.10
2019-02-12T05:30:03.651Z,1.30
2019-02-12T05:32:32.288Z,1.40
2019-02-12T05:35:01.269Z,1.30
2019-02-12T05:37:29.898Z,1.53
2019-02-12T05:39:58.515Z,1.60
2019-02-12T05:42:27.139Z,1.70
2019-02-12T05:44:56.029Z,1.70
2019-02-12T05:47:24.999Z,1.23
2019-02-12T05:49:53.628Z,1.70
2019-02-12T05:52:22.240Z,1.27
2019-02-12T05:54:50.866Z,2.70
2019-02-12T05:57:19.477Z,1.77
2019-02-12T05:59:48.086Z,1.90
2019-02-12T06:02:16.705Z,2.20
2019-02-12T06:04:45.336Z,1.87
2019-02-12T06:07:13.945Z,1.60
2019-02-12T06:09:42.575Z,1.50
2019-02-12T06:12:11.181Z,1.90
2019-02-12T06:14:39.791Z,1.70
2019-02-12T06:17:08.395Z,2.20
2019-02-12T06:19:37.019Z,1.60
2019-02-12T06:22:05.640Z,2.10
2019-02-12T06:24:34.274Z,2.57
2019-02-12T06:27:02.885Z,1.70
2019-02-12T06:29:31.514Z,1.60
2019-02-12T06:32:00.497Z,1.77
2019-02-12T06:34:29.145Z,2.63
2019-02-12T06:36:57.743Z,3.47
2019-02-12T06:39:26.662Z,2.20
2019-02-12T06:41:55.261Z,1.40
2019-02-12T06:44:23.886Z,1.70
2019-02-12T06:46:52.497Z,1.53
2019-02-12T06:49:21.143Z,1.50
2019-02-12T06:51:49.762Z,1.73
2019-02-12T06:54:18.376Z,1.80
2019-02-12T06:56:46.981Z,1.50
2019-02-12T06:59:15.602Z,2.30
2019-02-12T07:01:44.493Z,2.80
2019-02-12T07:04:13.121Z,1.87
2019-02-12T07:09:31.960Z,1.50
2019-02-12T07:14:51.081Z,3.17
2019-02-12T07:23:41.253Z,3.47
2019-02-12T07:26:48.030Z,1.40
2019-02-12T07:29:32.088Z,1.87
2019-02-12T07:32:31.994Z,2.53
2019-02-12T07:35:03.363Z,1.93
2019-02-12T07:37:37.755Z,2.67
2019-02-12T07:43:15.801Z,1.30
2019-02-12T07:51:28.433Z,1.70
2019-02-12T07:57:31.113Z,1.80
2019-02-12T07:59:59.762Z,1.73
2019-02-12T08:02:43.769Z,1.40
2019-02-12T08:05:18.383Z,1.23
2019-02-12T08:08:12.237Z,1.30
2019-02-12T08:13:30.967Z,1.27
2019-02-12T08:16:18.387Z,1.60
2019-02-12T08:18:56.197Z,1.77
2019-02-12T08:21:33.749Z,1.50
2019-02-12T08:32:53.312Z,1.53
2019-02-12T08:38:30.350Z,1.50
2019-02-12T08:41:17.696Z,1.73
2019-02-12T08:47:20.525Z,1.43
2019-02-12T08:50:13.910Z,1.43
2019-02-12T08:53:20.257Z,1.27
2019-02-12T09:01:48.704Z,1.20
2019-02-12T09:04:32.688Z,1.03
2019-02-12T09:07:07.292Z,1.10
2019-02-12T09:09:57.689Z,0.80
2019-02-12T09:12:26.795Z,1.20
2019-02-12T09:15:16.736Z,0.80
2019-02-12T09:17:51.638Z,0.93
2019-02-12T09:20:26.797Z,0.83
2019-02-12T09:23:04.692Z,0.90
2019-02-12T09:28:15.080Z,1.47
2019-02-12T09:34:05.107Z,2.40
2019-02-12T09:36:45.869Z,2.10
2019-02-12T09:39:35.980Z,1.43
2019-02-12T09:50:39.785Z,1.90
2019-02-12T09:53:33.293Z,1.67
2019-02-12T09:56:10.929Z,2.07
2019-02-12T09:58:51.707Z,1.50
2019-02-12T10:04:13.674Z,1.57
2019-02-12T10:07:00.524Z,1.80
2019-02-12T10:12:10.502Z,2.10
2019-02-12T10:14:54.229Z,1.80
2019-02-12T10:17:25.602Z,1.53
2019-02-12T10:22:56.891Z,1.73
2019-02-12T10:25:25.516Z,2.10
2019-02-12T10:33:39.654Z,1.80
2019-02-12T10:36:08.268Z,2.00
2019-02-12T10:38:36.902Z,2.00
2019-02-12T10:41:05.523Z,1.77
2019-02-12T10:43:34.139Z,1.37
2019-02-12T10:46:02.753Z,1.50
2019-02-12T10:48:31.389Z,0.67
2019-02-12T10:51:00.005Z,1.00
2019-02-12T10:53:29.644Z,0.90
2019-02-12T10:55:57.238Z,1.13
2019-02-12T10:58:25.892Z,1.63
2019-02-12T11:00:54.488Z,1.40
2019-02-12T11:03:23.430Z,1.30
2019-02-12T11:05:52.034Z,1.40
2019-02-12T11:08:20.652Z,1.50
2019-02-12T11:10:49.268Z,1.93
2019-02-12T11:13:17.905Z,1.93
2019-02-12T11:15:46.529Z,1.60
2019-02-12T11:18:15.148Z,2.00
2019-02-12T11:20:43.770Z,2.20
2019-02-12T11:23:12.408Z,2.07
2019-02-12T11:25:41.381Z,1.97
2019-02-12T11:28:10.048Z,2.10
2019-02-12T11:30:38.681Z,2.23
2019-02-12T11:33:07.347Z,1.70
2019-02-12T11:35:36.959Z,2.47
2019-02-12T11:38:04.615Z,2.07
2019-02-12T11:40:33.240Z,2.07
2019-02-12T11:43:01.872Z,1.90
2019-02-12T11:45:30.480Z,1.73
2019-02-12T11:47:59.100Z,1.83
2019-02-12T11:50:27.714Z,1.50
2019-02-12T11:52:56.323Z,1.80
2019-02-12T11:55:24.954Z,1.93
2019-02-12T11:57:53.572Z,1.60
2019-02-12T12:00:22.193Z,1.30
2019-02-12T12:02:51.136Z,1.97
2019-02-12T12:05:19.754Z,1.83
2019-02-12T12:07:48.357Z,2.07
2019-02-12T12:10:16.976Z,1.53
2019-02-12T12:12:45.971Z,2.17
2019-02-12T12:15:14.963Z,2.03
2019-02-12T12:17:43.593Z,2.17
2019-02-12T12:20:15.173Z,1.70
2019-02-12T12:22:43.834Z,1.67
2019-02-12T12:25:12.441Z,1.83
2019-02-12T12:27:41.084Z,1.57
2019-02-12T12:30:10.039Z,1.73
2019-02-12T12:32:38.701Z,1.27
2019-02-12T12:35:07.332Z,1.73
2019-02-12T12:37:35.939Z,1.50
2019-02-12T12:40:04.568Z,1.70
2019-02-12T12:42:33.215Z,1.50
2019-02-12T12:45:01.830Z,1.10
2019-02-12T12:47:30.465Z,1.67
2019-02-12T12:49:59.273Z,2.17
2019-02-12T12:52:27.707Z,1.63
2019-02-12T12:54:59.883Z,1.80
2019-02-12T12:57:24.916Z,2.10
2019-02-12T12:59:53.594Z,1.77
2019-02-12T13:02:22.157Z,1.90
2019-02-12T13:04:50.788Z,1.80
2019-02-12T13:07:19.396Z,1.37
2019-02-12T13:09:48.033Z,1.20
2019-02-12T13:12:16.671Z,1.40
2019-02-12T13:14:45.305Z,1.40
2019-02-12T13:17:13.936Z,1.37
2019-02-12T13:19:42.569Z,1.30
2019-02-12T13:22:11.481Z,1.60
2019-02-12T13:24:41.749Z,1.80
2019-02-12T13:27:09.397Z,1.67
2019-02-12T13:29:38.023Z,1.70
2019-02-12T13:32:06.660Z,1.27
2019-02-12T13:34:35.296Z,1.30
2019-02-12T13:37:04.189Z,1.30
2019-02-12T13:39:33.074Z,1.57
2019-02-12T13:42:01.976Z,1.60
2019-02-12T13:44:30.958Z,1.40
2019-02-12T13:46:59.960Z,1.90
2019-02-12T13:49:28.582Z,1.60
2019-02-12T13:51:57.182Z,1.63
2019-02-12T13:54:25.797Z,1.63
2019-02-12T13:56:54.413Z,1.80
2019-02-12T13:59:23.048Z,1.50
2019-02-12T14:01:51.669Z,1.37
2019-02-12T14:04:20.307Z,1.20
2019-02-12T14:06:48.914Z,1.73
2019-02-12T14:09:17.549Z,1.87
2019-02-12T14:11:46.488Z,1.90
2019-02-12T14:14:15.123Z,1.63
2019-02-12T14:16:43.722Z,1.10
2019-02-12T14:19:12.641Z,1.47
2019-02-12T14:21:41.273Z,1.60
2019-02-12T14:24:09.919Z,1.30
2019-02-12T14:26:38.525Z,1.70
2019-02-12T14:29:07.223Z,2.07
2019-02-12T14:31:35.773Z,1.63
2019-02-12T14:34:04.403Z,2.00
2019-02-12T14:36:33.022Z,1.60
2019-02-12T14:39:02.015Z,2.73
2019-02-12T14:41:30.613Z,1.83
2019-02-12T14:43:59.246Z,1.97
2019-02-12T14:46:27.865Z,1.80
2019-02-12T14:48:56.490Z,1.90
2019-02-12T14:51:25.101Z,1.63
2019-02-12T14:53:53.735Z,1.60
2019-02-12T14:56:22.692Z,1.83
2019-02-12T14:58:51.347Z,1.30
2019-02-12T15:01:19.967Z,1.80
2019-02-12T15:03:48.597Z,1.67
2019-02-12T15:06:17.536Z,1.50
2019-02-12T15:08:46.185Z,1.73
2019-02-12T15:11:14.805Z,2.07
2019-02-12T15:13:43.796Z,1.63
2019-02-12T15:16:12.403Z,1.70
2019-02-12T15:18:41.026Z,2.47
2019-02-12T15:21:09.652Z,1.40
2019-02-12T15:23:38.273Z,1.77
2019-02-12T15:26:06.903Z,1.57
2019-02-12T15:28:35.512Z,1.57
2019-02-12T15:31:04.133Z,1.70
2019-02-12T15:33:32.743Z,1.40
2019-02-12T15:36:01.732Z,1.30
2019-02-12T15:38:30.341Z,1.20
2019-02-12T15:40:58.969Z,1.50
2019-02-12T15:43:27.606Z,2.83
2019-02-12T15:45:56.237Z,3.57
2019-02-12T15:48:25.163Z,1.83
2019-02-12T15:50:53.786Z,2.13
2019-02-12T15:53:22.375Z,1.87
2019-02-12T15:55:51.638Z,1.80
2019-02-12T15:58:19.899Z,1.97
2019-02-12T16:00:48.538Z,1.77
2019-02-12T16:03:18.376Z,1.73
2019-02-12T16:05:45.772Z,2.20
2019-02-12T16:08:14.406Z,2.33
2019-02-12T16:10:43.319Z,1.83
2019-02-12T16:13:13.569Z,2.60
2019-02-12T16:15:41.518Z,2.53
2019-02-12T16:18:09.514Z,1.80
2019-02-12T16:20:38.121Z,2.93
2019-02-12T16:23:06.737Z,2.13
2019-02-12T16:25:35.366Z,2.30
2019-02-12T16:28:04.313Z,3.23
2019-02-12T16:30:32.935Z,3.20
2019-02-12T16:33:01.877Z,3.10
2019-02-12T16:35:30.523Z,2.50
2019-02-12T16:37:59.151Z,2.40
2019-02-12T16:40:27.789Z,2.50
2019-02-12T16:42:56.424Z,2.13
2019-02-12T16:45:37.002Z,2.30
2019-02-12T16:48:05.615Z,2.83
2019-02-12T16:50:34.346Z,1.97
2019-02-12T16:53:02.968Z,2.27
2019-02-12T16:55:31.588Z,2.43
2019-02-12T16:58:00.215Z,2.00
2019-02-12T17:00:28.849Z,1.90
2019-02-12T17:02:57.462Z,2.60
2019-02-12T17:05:26.078Z,2.20
2019-02-12T17:07:54.692Z,2.10
2019-02-12T17:10:23.601Z,1.87
2019-02-12T17:12:52.215Z,1.90
2019-02-12T17:15:20.838Z,1.90
2019-02-12T17:17:49.533Z,1.90
2019-02-12T17:20:18.170Z,2.17
2019-02-12T17:22:47.138Z,2.60
2019-02-12T17:25:15.772Z,2.10
2019-02-12T17:27:44.381Z,2.00
2019-02-12T17:32:54.335Z,2.40
2019-02-12T17:35:22.955Z,2.30
2019-02-12T17:37:51.561Z,2.73
2019-02-12T17:40:20.174Z,2.40
2019-02-12T17:42:48.794Z,2.30
2019-02-12T17:45:17.493Z,2.20
2019-02-12T17:47:46.128Z,2.57
2019-02-12T17:50:14.762Z,2.23
2019-02-12T17:52:43.388Z,1.90
2019-02-12T17:55:12.007Z,2.20
2019-02-12T17:57:40.616Z,6.00
2019-02-12T18:00:15.244Z,4.43
2019-02-12T18:02:43.872Z,2.73
2019-02-12T18:05:12.506Z,2.97
2019-02-12T18:07:41.107Z,2.20
2019-02-12T18:10:09.742Z,3.47
2019-02-12T18:12:38.343Z,2.83
2019-02-12T18:15:06.987Z,2.80
2019-02-12T18:17:35.591Z,4.07
2019-02-12T18:20:04.245Z,4.00
2019-02-12T18:22:32.875Z,2.70
2019-02-12T18:25:01.836Z,3.03
2019-02-12T18:27:30.509Z,2.70
2019-02-12T18:29:59.419Z,2.70
2019-02-12T18:32:28.068Z,2.67
2019-02-12T18:34:56.996Z,2.80
2019-02-12T18:37:26.014Z,2.90
2019-02-12T18:39:54.647Z,2.80
2019-02-12T18:42:23.548Z,2.10
2019-02-12T18:44:52.163Z,3.13
2019-02-12T18:47:20.789Z,2.70
2019-02-12T18:49:49.401Z,2.33
2019-02-12T18:52:18.027Z,3.00
2019-02-12T18:54:46.658Z,3.60
2019-02-12T18:57:15.271Z,5.33
2019-02-12T18:59:43.884Z,4.17
2019-02-12T19:02:12.500Z,3.03
2019-02-12T19:04:41.416Z,3.57
2019-02-12T19:07:10.041Z,2.50
2019-02-12T19:09:38.677Z,2.57
2019-02-12T19:12:07.313Z,2.87
2019-02-12T19:14:35.934Z,2.50
2019-02-12T19:17:04.581Z,2.80
2019-02-12T19:19:33.201Z,2.37
2019-02-12T19:22:02.191Z,2.07
2019-02-12T19:24:30.805Z,2.37
2019-02-12T19:26:59.767Z,2.37
2019-02-12T19:29:28.380Z,2.83
2019-02-12T19:31:59.291Z,2.90
2019-02-12T19:34:25.644Z,2.20
2019-02-12T19:36:54.604Z,2.50
2019-02-12T19:39:23.480Z,2.97
2019-02-12T19:41:52.120Z,2.63
2019-02-12T19:44:20.743Z,2.50
2019-02-12T19:46:49.352Z,2.60
2019-02-12T19:49:17.975Z,3.23
2019-02-12T19:51:46.603Z,3.47
2019-02-12T19:54:15.230Z,3.10
2019-02-12T19:56:43.837Z,3.43
2019-02-12T19:59:12.458Z,3.07
2019-02-12T20:01:41.338Z,3.33
2019-02-12T20:04:09.963Z,3.60
2019-02-12T20:06:38.558Z,3.73
2019-02-12T20:11:42.196Z,4.07
2019-02-12T20:14:10.814Z,3.90
2019-02-12T20:16:39.447Z,4.57
2019-02-12T20:19:08.063Z,4.30
2019-02-12T20:21:36.677Z,4.13
2019-02-12T20:24:05.313Z,4.73
2019-02-12T20:26:34.209Z,4.43
2019-02-12T20:29:02.836Z,4.50
2019-02-12T20:31:32.013Z,4.27
2019-02-12T20:34:00.372Z,5.57
2019-02-12T20:36:28.969Z,4.77
2019-02-12T20:38:57.654Z,5.67
2019-02-12T20:41:26.275Z,5.20
2019-02-12T20:43:55.215Z,5.47
2019-02-12T20:46:24.090Z,5.80
2019-02-12T20:48:52.729Z,5.47
2019-02-12T20:51:21.662Z,6.50
2019-02-12T20:53:50.563Z,7.10
2019-02-12T20:56:19.170Z,7.77
2019-02-12T20:58:47.794Z,9.07
2019-02-12T21:01:16.414Z,8.73
2019-02-12T21:03:45.084Z,9.33
2019-02-12T21:06:13.689Z,9.87
2019-02-12T21:08:42.310Z,9.07
2019-02-12T21:11:10.913Z,9.67
2019-02-12T21:13:39.537Z,9.07
2019-02-12T21:16:08.149Z,9.23
2019-02-12T21:18:36.776Z,8.60
2019-02-12T21:21:05.398Z,9.13
2019-02-12T21:23:34.025Z,8.90
2019-02-12T21:26:02.647Z,8.73
2019-02-12T21:28:31.261Z,8.20
2019-02-12T21:30:59.876Z,9.13
2019-02-12T21:33:28.509Z,8.63
2019-02-12T21:35:57.098Z,8.93
2019-02-12T21:38:26.678Z,10.00
2019-02-12T21:40:54.653Z,9.73
2019-02-12T21:43:23.278Z,10.53
2019-02-12T21:45:51.903Z,10.30
2019-02-12T21:48:20.546Z,9.50
2019-02-12T21:50:49.168Z,10.70
2019-02-12T21:53:17.780Z,11.13
2019-02-12T21:55:46.413Z,11.23
2019-02-12T21:58:15.014Z,11.13
2019-02-12T22:00:44.062Z,10.57
2019-02-12T22:03:12.618Z,10.90
2019-02-12T22:05:41.253Z,11.53
2019-02-12T22:08:09.873Z,10.47
2019-02-12T22:10:46.236Z,11.77
2019-02-12T22:13:07.468Z,12.17
2019-02-12T22:15:36.100Z,11.33
2019-02-12T22:18:04.719Z,11.67
2019-02-12T22:20:33.350Z,11.60
2019-02-12T22:23:02.258Z,10.90
2019-02-12T22:25:31.243Z,10.83
2019-02-12T22:27:59.868Z,11.50
2019-02-12T22:30:28.494Z,11.60
2019-02-12T22:32:57.121Z,10.70
2019-02-12T22:35:25.760Z,11.60
2019-02-12T22:37:54.362Z,11.43
2019-02-12T22:40:22.974Z,12.37
2019-02-12T22:42:51.587Z,9.77
2019-02-12T22:45:20.216Z,12.57
2019-02-12T22:47:48.827Z,11.27
2019-02-12T22:50:17.455Z,11.90
2019-02-12T22:52:46.358Z,10.83
2019-02-12T22:55:15.367Z,10.63
2019-02-12T22:57:49.247Z,12.23
2019-02-12T23:00:27.974Z,11.73
2019-02-12T23:02:56.877Z,11.10
2019-02-12T23:05:25.856Z,11.03
2019-02-12T23:07:54.475Z,11.67
2019-02-12T23:10:23.120Z,11.13
2019-02-12T23:12:51.724Z,11.10
2019-02-12T23:15:20.706Z,11.93
2019-02-12T23:17:49.369Z,12.53
2019-02-12T23:20:18.011Z,11.93
2019-02-12T23:22:46.620Z,11.57
2019-02-12T23:25:15.239Z,12.60
2019-02-12T23:27:44.224Z,12.07
2019-02-12T23:30:13.218Z,13.90
2019-02-12T23:32:41.845Z,13.07
2019-02-12T23:35:10.476Z,13.00
2019-02-12T23:37:39.111Z,14.10
2019-02-12T23:40:07.750Z,13.97
2019-02-12T23:42:36.366Z,13.13
2019-02-12T23:45:04.995Z,11.90
2019-02-12T23:47:33.899Z,10.97
2019-02-12T23:50:02.535Z,11.33
2019-02-12T23:52:31.156Z,14.07
2019-02-12T23:54:59.777Z,12.47
2019-02-12T23:57:28.642Z,10.20
2019-02-12T23:59:57.627Z,9.70
